^^
Saratoga-Weather Station Historical Data
Daily Summary for March 6, 2020 Units:  Metric    English   Both
Daily Weekly Monthly Yearly Custom
  High: Low: Average:
Temperature: 3.8 °C -0.8 °C 0.7 °C
Dew Point: 3.1 °C -1.2 °C 0.2 °C
Humidity: 98% 95% 97%
Wind Speed: 7.9km/h 0km/h 1.4km/h
Wind Gust: 11.3km/h - -
Wind- - East
Pressure: 1032.8 hPa 1025.1 hPa -
Precipitation: 0.0 mm    
Historical Graphs
 
 
Tabular Data for March 6, 2020
Time Temperature Dew Point Pressure Wind Wind Speed Wind Gust Humidity Rainfall Rate (Hourly) solar
00:01 3.8 °C 3.1 °C 1032.8 hPa Calm     95% 0.0 mm 0 W/m2
00:06 3.8 °C 3.1 °C 1032.5 hPa Calm     95% 0.0 mm 0 W/m2
00:11 3.7 °C 3 °C 1032.5 hPa Calm     95% 0.0 mm 0 W/m2
00:16 3.7 °C 3 °C 1032.5 hPa Calm   1.6 km/h 95% 0.0 mm 0 W/m2
00:21 3.6 °C 2.9 °C 1032.5 hPa Calm     95% 0.0 mm 0 W/m2
00:26 3.6 °C 2.9 °C 1032.5 hPa Calm   1.6 km/h 95% 0.0 mm 0 W/m2
00:31 3.4 °C 2.7 °C 1032.5 hPa Calm     95% 0.0 mm 0 W/m2
00:36 3.3 °C 2.6 °C 1032.5 hPa Calm     95% 0.0 mm 0 W/m2
00:41 3.1 °C 2.4 °C 1032.2 hPa Calm     95% 0.0 mm 0 W/m2
00:46 3 °C 2.3 °C 1032.2 hPa Calm     95% 0.0 mm 0 W/m2
00:51 2.8 °C 2.1 °C 1032.2 hPa Calm     95% 0.0 mm 0 W/m2
00:56 2.7 °C 2 °C 1032.2 hPa Calm     95% 0.0 mm 0 W/m2
01:01 2.7 °C 2 °C 1032.2 hPa Calm     95% 0.0 mm 0 W/m2
01:06 2.5 °C 1.8 °C 1032.2 hPa Calm     95% 0.0 mm 0 W/m2
01:11 2.4 °C 1.7 °C 1031.8 hPa Calm     95% 0.0 mm 0 W/m2
01:16 2.4 °C 1.7 °C 1031.8 hPa Calm     95% 0.0 mm 0 W/m2
01:21 2.3 °C 1.6 °C 1031.8 hPa Calm     95% 0.0 mm 0 W/m2
01:26 2.2 °C 1.5 °C 1031.8 hPa Calm     95% 0.0 mm 0 W/m2
01:31 2.2 °C 1.6 °C 1031.8 hPa Calm     96% 0.0 mm 0 W/m2
01:36 2.2 °C 1.6 °C 1031.8 hPa Calm     96% 0.0 mm 0 W/m2
01:41 2.1 °C 1.5 °C 1031.8 hPa Calm     96% 0.0 mm 0 W/m2
01:46 2 °C 1.3 °C 1031.8 hPa Calm     95% 0.0 mm 0 W/m2
01:51 1.9 °C 1.3 °C 1031.5 hPa Calm     96% 0.0 mm 0 W/m2
01:56 1.9 °C 1.3 °C 1031.5 hPa Calm     96% 0.0 mm 0 W/m2
02:01 1.8 °C 1.2 °C 1031.5 hPa Calm     96% 0.0 mm 0 W/m2
02:06 1.8 °C 1.2 °C 1031.5 hPa Calm     96% 0.0 mm 0 W/m2
02:11 1.8 °C 1.2 °C 1031.5 hPa Calm     96% 0.0 mm 0 W/m2
02:16 1.7 °C 1.1 °C 1031.5 hPa Calm     96% 0.0 mm 0 W/m2
02:21 1.7 °C 1.1 °C 1031.5 hPa Calm     96% 0.0 mm 0 W/m2
02:26 1.6 °C 1 °C 1031.5 hPa Calm     96% 0.0 mm 0 W/m2
02:31 1.6 °C 1 °C 1031.5 hPa Calm     96% 0.0 mm 0 W/m2
02:36 1.4 °C 0.8 °C 1031.5 hPa Calm     96% 0.0 mm 0 W/m2
02:41 1.3 °C 0.7 °C 1031.5 hPa Calm     96% 0.0 mm 0 W/m2
02:46 1.2 °C 0.5 °C 1031.5 hPa Calm     95% 0.0 mm 0 W/m2
02:51 1 °C 0.4 °C 1031.5 hPa Calm     96% 0.0 mm 0 W/m2
02:57 0.9 °C 0.3 °C 1031.2 hPa Calm     96% 0.0 mm 0 W/m2
03:02 0.8 °C 0.2 °C 1031.2 hPa Calm     96% 0.0 mm 0 W/m2
03:07 0.8 °C 0.2 °C 1031.2 hPa Calm     96% 0.0 mm 0 W/m2
03:12 0.8 °C 0.2 °C 1031.2 hPa Calm     96% 0.0 mm 0 W/m2
03:17 0.7 °C 0.1 °C 1031.2 hPa Calm     96% 0.0 mm 0 W/m2
03:22 0.6 °C 0 °C 1031.2 hPa Calm     96% 0.0 mm 0 W/m2
03:27 0.7 °C 0.1 °C 1031.2 hPa Calm     96% 0.0 mm 0 W/m2
03:32 0.8 °C 0.2 °C 1031.2 hPa Calm     96% 0.0 mm 0 W/m2
03:37 0.8 °C 0.2 °C 1031.2 hPa Calm     96% 0.0 mm 0 W/m2
03:42 0.7 °C 0.1 °C 1031.2 hPa Calm     96% 0.0 mm 0 W/m2
03:47 0.6 °C 0 °C 1031.2 hPa Calm     96% 0.0 mm 0 W/m2
03:52 0.6 °C 0 °C 1031.2 hPa Calm     96% 0.0 mm 0 W/m2
03:57 0.6 °C 0 °C 1031.2 hPa Calm     96% 0.0 mm 0 W/m2
04:02 0.7 °C 0.1 °C 1031.2 hPa Calm     96% 0.0 mm 0 W/m2
04:07 0.7 °C 0.1 °C 1030.8 hPa Calm     96% 0.0 mm 0 W/m2
04:12 0.7 °C 0.1 °C 1030.8 hPa Calm     96% 0.0 mm 0 W/m2
04:17 0.8 °C 0.2 °C 1030.8 hPa Calm     96% 0.0 mm 0 W/m2
04:22 0.8 °C 0.4 °C 1030.8 hPa Calm     97% 0.0 mm 0 W/m2
04:27 0.9 °C 0.5 °C 1030.5 hPa Calm     97% 0.0 mm 0 W/m2
04:32 1.1 °C 0.7 °C 1030.5 hPa Calm     97% 0.0 mm 0 W/m2
04:37 1.2 °C 0.8 °C 1030.5 hPa Calm     97% 0.0 mm 0 W/m2
04:42 1.2 °C 0.8 °C 1030.5 hPa Calm     97% 0.0 mm 0 W/m2
04:47 1.3 °C 0.9 °C 1030.5 hPa Calm     97% 0.0 mm 0 W/m2
04:52 1.3 °C 0.9 °C 1030.5 hPa Calm     97% 0.0 mm 0 W/m2
04:57 1.4 °C 1 °C 1030.1 hPa Calm     97% 0.0 mm 0 W/m2
05:02 1.5 °C 1.1 °C 1030.1 hPa Calm     97% 0.0 mm 0 W/m2
05:07 1.6 °C 1.2 °C 1030.1 hPa Calm     97% 0.0 mm 0 W/m2
05:12 1.7 °C 1.3 °C 1030.1 hPa Calm     97% 0.0 mm 0 W/m2
05:17 1.7 °C 1.3 °C 1030.5 hPa Calm   1.6 km/h 97% 0.0 mm 0 W/m2
05:22 1.7 °C 1.3 °C 1030.1 hPa Calm     97% 0.0 mm 0 W/m2
05:27 1.7 °C 1.3 °C 1030.1 hPa Calm     97% 0.0 mm 0 W/m2
05:32 1.7 °C 1.3 °C 1030.1 hPa Calm     97% 0.0 mm 0 W/m2
05:37 1.7 °C 1.3 °C 1030.1 hPa Calm   1.6 km/h 97% 0.0 mm 0 W/m2
05:42 1.7 °C 1.3 °C 1030.1 hPa Calm     97% 0.0 mm 0 W/m2
05:47 1.6 °C 1.2 °C 1030.1 hPa Calm     97% 0.0 mm 0 W/m2
05:52 1.6 °C 1.2 °C 1030.1 hPa Calm     97% 0.0 mm 0 W/m2
05:57 1.6 °C 1.2 °C 1030.1 hPa Calm     97% 0.0 mm 0 W/m2
06:02 1.5 °C 1.1 °C 1030.1 hPa Calm     97% 0.0 mm 0 W/m2
06:07 1.5 °C 1.1 °C 1030.1 hPa Calm     97% 0.0 mm 0 W/m2
06:12 1.4 °C 1 °C 1030.1 hPa Calm     97% 0.0 mm 0 W/m2
06:18 1.4 °C 1 °C 1030.1 hPa Calm     97% 0.0 mm 0 W/m2
06:23 1.4 °C 1 °C 1030.1 hPa Calm     97% 0.0 mm 0 W/m2
06:28 1.4 °C 1 °C 1030.1 hPa Calm     97% 0.0 mm 0 W/m2
06:33 1.4 °C 1 °C 1030.1 hPa Calm     97% 0.0 mm 0 W/m2
06:38 1.3 °C 0.9 °C 1029.8 hPa Calm     97% 0.0 mm 0 W/m2
06:43 1.2 °C 0.8 °C 1029.8 hPa Calm     97% 0.0 mm 0 W/m2
06:48 1.2 °C 0.8 °C 1029.8 hPa Calm     97% 0.0 mm 0 W/m2
06:53 1.1 °C 0.7 °C 1029.8 hPa Calm     97% 0.0 mm 0 W/m2
06:58 1 °C 0.6 °C 1030.1 hPa Calm     97% 0.0 mm 0 W/m2
07:03 0.9 °C 0.5 °C 1030.1 hPa Calm     97% 0.0 mm 0 W/m2
07:08 0.8 °C 0.4 °C 1029.8 hPa Calm     97% 0.0 mm 0 W/m2
07:13 0.7 °C 0.3 °C 1029.8 hPa Calm     97% 0.0 mm 0 W/m2
07:18 0.7 °C 0.3 °C 1029.8 hPa Calm     97% 0.0 mm 0 W/m2
07:23 0.6 °C 0.2 °C 1029.8 hPa Calm     97% 0.0 mm 0 W/m2
07:28 0.5 °C 0.1 °C 1029.8 hPa Calm     97% 0.0 mm 0 W/m2
07:33 0.4 °C 0 °C 1029.8 hPa Calm     97% 0.0 mm 0 W/m2
07:38 0.4 °C 0 °C 1029.8 hPa Calm     97% 0.0 mm 0 W/m2
07:43 0.4 °C 0 °C 1029.8 hPa Calm     97% 0.0 mm 0 W/m2
07:48 0.3 °C -0.1 °C 1029.8 hPa Calm     97% 0.0 mm 0 W/m2
07:53 0.3 °C -0.1 °C 1029.8 hPa Calm     97% 0.0 mm 0 W/m2
07:58 0.3 °C -0.1 °C 1029.8 hPa Calm     97% 0.0 mm 0 W/m2
08:03 0.4 °C 0 °C 1029.8 hPa Calm     97% 0.0 mm 0 W/m2
08:08 0.4 °C 0 °C 1029.8 hPa Calm     97% 0.0 mm 0 W/m2
08:13 0.5 °C 0.1 °C 1029.8 hPa NE 1.4 km/h 3.2 km/h 97% 0.0 mm 0 W/m2
08:18 0.5 °C 0.1 °C 1029.8 hPa ESE 3.2 km/h 6.4 km/h 97% 0.0 mm 0 W/m2
08:23 0.4 °C 0 °C 1029.8 hPa SE 1.4 km/h 4.8 km/h 97% 0.0 mm 0 W/m2
08:28 0.3 °C -0.1 °C 1029.8 hPa East 1.4 km/h 4.8 km/h 97% 0.0 mm 0 W/m2
08:33 0.3 °C -0.1 °C 1029.8 hPa ESE 3.2 km/h 6.4 km/h 97% 0.0 mm 0 W/m2
08:38 0.2 °C -0.2 °C 1029.8 hPa SE 3.2 km/h 6.4 km/h 97% 0.0 mm 0 W/m2
08:43 0.1 °C -0.3 °C 1029.8 hPa Calm   1.6 km/h 97% 0.0 mm 0 W/m2
08:48 0 °C -0.4 °C 1029.8 hPa East 1.4 km/h 6.4 km/h 97% 0.0 mm 7 W/m2
08:53 -0.2 °C -0.6 °C 1029.8 hPa Calm   4.8 km/h 97% 0.0 mm 7 W/m2
08:58 -0.3 °C -0.7 °C 1029.8 hPa Calm   6.4 km/h 97% 0.0 mm 9 W/m2
09:03 -0.3 °C -0.7 °C 1029.8 hPa East 3.2 km/h 4.8 km/h 97% 0.0 mm 11 W/m2
09:08 -0.3 °C -0.7 °C 1029.8 hPa East 3.2 km/h 4.8 km/h 97% 0.0 mm 12 W/m2
09:13 -0.4 °C -0.8 °C 1029.8 hPa ESE 1.4 km/h 6.4 km/h 97% 0.0 mm 12 W/m2
09:18 -0.5 °C -0.9 °C 1029.8 hPa SE 1.4 km/h 1.6 km/h 97% 0.0 mm 16 W/m2
09:23 -0.6 °C -1 °C 1029.8 hPa Calm   4.8 km/h 97% 0.0 mm 25 W/m2
09:28 -0.6 °C -1 °C 1029.8 hPa ESE 1.4 km/h 4.8 km/h 97% 0.0 mm 19 W/m2
09:33 -0.6 °C -1 °C 1029.8 hPa East 4.7 km/h 9.7 km/h 97% 0.0 mm 19 W/m2
09:38 -0.7 °C -1.1 °C 1029.8 hPa Calm   1.6 km/h 97% 0.0 mm 19 W/m2
09:43 -0.6 °C -1 °C 1029.8 hPa Calm   3.2 km/h 97% 0.0 mm 21 W/m2
09:48 -0.6 °C -1 °C 1029.8 hPa ESE 1.4 km/h 4.8 km/h 97% 0.0 mm 21 W/m2
09:53 -0.6 °C -1 °C 1029.8 hPa Calm   6.4 km/h 97% 0.0 mm 23 W/m2
09:58 -0.6 °C -1 °C 1029.5 hPa Calm   1.6 km/h 97% 0.0 mm 25 W/m2
10:03 -0.5 °C -0.9 °C 1029.5 hPa ESE 3.2 km/h 9.7 km/h 97% 0.0 mm 33 W/m2
10:08 -0.6 °C -1 °C 1029.5 hPa Calm   4.8 km/h 97% 0.0 mm 37 W/m2
10:13 -0.6 °C -1 °C 1029.5 hPa Calm   9.7 km/h 97% 0.0 mm 37 W/m2
10:18 -0.7 °C -1.1 °C 1029.5 hPa East 1.4 km/h 6.4 km/h 97% 0.0 mm 40 W/m2
10:24 -0.7 °C -1.1 °C 1029.5 hPa NE 1.4 km/h 3.2 km/h 97% 0.0 mm 40 W/m2
10:29 -0.7 °C -1.1 °C 1029.5 hPa Calm   3.2 km/h 97% 0.0 mm 42 W/m2
10:34 -0.7 °C -1.1 °C 1029.5 hPa ESE 4.7 km/h 6.4 km/h 97% 0.0 mm 47 W/m2
10:39 -0.7 °C -1.1 °C 1029.5 hPa ESE 6.4 km/h 9.7 km/h 97% 0.0 mm 42 W/m2
10:44 -0.8 °C -1.2 °C 1029.5 hPa ENE 3.2 km/h 6.4 km/h 97% 0.0 mm 44 W/m2
10:49 -0.8 °C -1.2 °C 1029.1 hPa Calm   4.8 km/h 97% 0.0 mm 42 W/m2
10:54 -0.7 °C -1.1 °C 1029.1 hPa East 4.7 km/h 6.4 km/h 97% 0.0 mm 53 W/m2
10:59 -0.7 °C -1.1 °C 1029.1 hPa Calm   6.4 km/h 97% 0.0 mm 53 W/m2
11:04 -0.7 °C -1.1 °C 1029.1 hPa ESE 1.4 km/h 3.2 km/h 97% 0.0 mm 58 W/m2
11:09 -0.7 °C -1.1 °C 1029.1 hPa ENE 7.9 km/h 9.7 km/h 97% 0.0 mm 60 W/m2
11:14 -0.7 °C -1.1 °C 1029.1 hPa Calm   3.2 km/h 97% 0.0 mm 58 W/m2
11:19 -0.7 °C -1.1 °C 1028.8 hPa Calm   9.7 km/h 97% 0.0 mm 54 W/m2
11:24 -0.7 °C -1.1 °C 1028.8 hPa ENE 6.4 km/h 8 km/h 97% 0.0 mm 62 W/m2
11:29 -0.7 °C -1.1 °C 1028.8 hPa SE 6.4 km/h 8 km/h 97% 0.0 mm 69 W/m2
11:34 -0.7 °C -1.1 °C 1028.5 hPa ENE 4.7 km/h 6.4 km/h 97% 0.0 mm 74 W/m2
11:39 -0.7 °C -1.1 °C 1028.5 hPa Calm   3.2 km/h 97% 0.0 mm 63 W/m2
11:44 -0.7 °C -1.1 °C 1028.5 hPa SE 3.2 km/h 6.4 km/h 97% 0.0 mm 63 W/m2
11:49 -0.7 °C -1.1 °C 1028.5 hPa ESE 4.7 km/h 6.4 km/h 97% 0.0 mm 62 W/m2
11:54 -0.7 °C -1.1 °C 1028.1 hPa Calm   4.8 km/h 97% 0.0 mm 62 W/m2
11:59 -0.6 °C -1 °C 1028.1 hPa Calm     97% 0.0 mm 79 W/m2
12:04 -0.6 °C -1 °C 1028.1 hPa East 3.2 km/h 3.2 km/h 97% 0.0 mm 63 W/m2
12:09 -0.6 °C -1 °C 1028.1 hPa Calm   3.2 km/h 97% 0.0 mm 58 W/m2
12:14 -0.5 °C -0.9 °C 1027.8 hPa ENE 1.4 km/h 4.8 km/h 97% 0.0 mm 65 W/m2
12:19 -0.4 °C -0.8 °C 1027.8 hPa East 4.7 km/h 4.8 km/h 97% 0.0 mm 65 W/m2
12:24 -0.4 °C -0.8 °C 1027.8 hPa East 3.2 km/h 6.4 km/h 97% 0.0 mm 81 W/m2
12:29 -0.4 °C -0.8 °C 1027.8 hPa ESE 3.2 km/h 11.3 km/h 97% 0.0 mm 95 W/m2
12:34 -0.4 °C -0.8 °C 1027.4 hPa SE 1.4 km/h 6.4 km/h 97% 0.0 mm 84 W/m2
12:39 -0.4 °C -0.8 °C 1027.4 hPa SE 4.7 km/h 11.3 km/h 97% 0.0 mm 76 W/m2
12:44 -0.5 °C -0.9 °C 1027.4 hPa NE 4.7 km/h 8 km/h 97% 0.0 mm 67 W/m2
12:50 -0.4 °C -0.8 °C 1027.4 hPa SSE 3.2 km/h 4.8 km/h 97% 0.0 mm 65 W/m2
12:55 -0.4 °C -0.7 °C 1027.4 hPa East 4.7 km/h 6.4 km/h 98% 0.0 mm 54 W/m2
13:00 -0.4 °C -0.7 °C 1027.1 hPa East 4.7 km/h 6.4 km/h 98% 0.0 mm 54 W/m2
13:05 -0.3 °C -0.6 °C 1027.1 hPa Calm   3.2 km/h 98% 0.0 mm 54 W/m2
13:10 -0.3 °C -0.6 °C 1027.1 hPa ENE 3.2 km/h 6.4 km/h 98% 0.0 mm 60 W/m2
13:15 -0.2 °C -0.5 °C 1026.8 hPa ESE 6.4 km/h 6.4 km/h 98% 0.0 mm 77 W/m2
13:20 -0.2 °C -0.5 °C 1026.8 hPa ESE 4.7 km/h 6.4 km/h 98% 0.0 mm 69 W/m2
13:25 -0.2 °C -0.5 °C 1026.8 hPa ESE 1.4 km/h 3.2 km/h 98% 0.0 mm 60 W/m2
13:30 -0.2 °C -0.6 °C 1026.8 hPa SE 1.4 km/h 3.2 km/h 97% 0.0 mm 70 W/m2
13:35 -0.2 °C -0.6 °C 1026.8 hPa ESE 4.7 km/h 6.4 km/h 97% 0.0 mm 60 W/m2
13:40 -0.2 °C -0.6 °C 1026.4 hPa East 3.2 km/h 4.8 km/h 97% 0.0 mm 62 W/m2
13:45 -0.1 °C -0.5 °C 1026.8 hPa East 4.7 km/h 9.7 km/h 97% 0.0 mm 65 W/m2
13:50 -0.1 °C -0.4 °C 1026.8 hPa SE 1.4 km/h 6.4 km/h 98% 0.0 mm 67 W/m2
13:55 0.1 °C -0.2 °C 1026.4 hPa ESE 3.2 km/h 6.4 km/h 98% 0.0 mm 63 W/m2
14:00 0.1 °C -0.2 °C 1026.4 hPa East 4.7 km/h 4.8 km/h 98% 0.0 mm 60 W/m2
14:05 0.1 °C -0.2 °C 1026.4 hPa East 4.7 km/h 4.8 km/h 98% 0.0 mm 54 W/m2
14:10 0.2 °C -0.1 °C 1026.4 hPa ESE 1.4 km/h 4.8 km/h 98% 0.0 mm 54 W/m2
14:15 0.1 °C -0.2 °C 1026.4 hPa SE 3.2 km/h 9.7 km/h 98% 0.0 mm 51 W/m2
14:20 0.1 °C -0.2 °C 1026.4 hPa ESE 1.4 km/h 6.4 km/h 98% 0.0 mm 46 W/m2
14:25 0.2 °C -0.1 °C 1026.4 hPa SE 3.2 km/h 4.8 km/h 98% 0.0 mm 42 W/m2
14:30 0.2 °C -0.1 °C 1026.4 hPa SE 4.7 km/h 4.8 km/h 98% 0.0 mm 42 W/m2
14:35 0.2 °C -0.1 °C 1026.4 hPa ESE 4.7 km/h 6.4 km/h 98% 0.0 mm 39 W/m2
14:40 0.2 °C -0.1 °C 1026.1 hPa Calm   6.4 km/h 98% 0.0 mm 40 W/m2
14:45 0.2 °C -0.1 °C 1026.1 hPa ENE 4.7 km/h 6.4 km/h 98% 0.0 mm 40 W/m2
14:50 0.2 °C -0.1 °C 1026.1 hPa NNE 3.2 km/h 3.2 km/h 98% 0.0 mm 40 W/m2
14:55 0.3 °C 0 °C 1026.1 hPa East 3.2 km/h 6.4 km/h 98% 0.0 mm 37 W/m2
15:00 0.3 °C 0 °C 1026.1 hPa ESE 4.7 km/h 4.8 km/h 98% 0.0 mm 39 W/m2
15:05 0.3 °C 0 °C 1026.1 hPa ESE 1.4 km/h 3.2 km/h 98% 0.0 mm 35 W/m2
15:10 0.3 °C 0 °C 1026.1 hPa ESE 1.4 km/h 1.6 km/h 98% 0.0 mm 32 W/m2
15:15 0.3 °C 0 °C 1026.1 hPa East 1.4 km/h 4.8 km/h 98% 0.0 mm 32 W/m2
15:20 0.3 °C 0 °C 1025.7 hPa ESE 1.4 km/h 6.4 km/h 98% 0.0 mm 26 W/m2
15:25 0.4 °C 0.1 °C 1025.7 hPa East 4.7 km/h 6.4 km/h 98% 0.0 mm 25 W/m2
15:30 0.4 °C 0.1 °C 1025.7 hPa ESE 1.4 km/h 4.8 km/h 98% 0.0 mm 28 W/m2
15:35 0.4 °C 0.1 °C 1025.7 hPa ENE 1.4 km/h 4.8 km/h 98% 0.0 mm 25 W/m2
15:40 0.4 °C 0.1 °C 1025.7 hPa Calm   1.6 km/h 98% 0.0 mm 19 W/m2
15:45 0.5 °C 0.2 °C 1025.7 hPa ENE 1.4 km/h 6.4 km/h 98% 0.0 mm 18 W/m2
15:50 0.5 °C 0.2 °C 1025.4 hPa ESE 1.4 km/h 4.8 km/h 98% 0.0 mm 18 W/m2
15:55 0.4 °C 0.1 °C 1025.4 hPa ENE 6.4 km/h 6.4 km/h 98% 0.0 mm 14 W/m2
16:00 0.5 °C 0.2 °C 1025.4 hPa ESE 1.4 km/h 11.3 km/h 98% 0.0 mm 16 W/m2
16:06 0.5 °C 0.2 °C 1025.4 hPa Calm   3.2 km/h 98% 0.0 mm 12 W/m2
16:11 0.4 °C 0.1 °C 1025.4 hPa ESE 1.4 km/h 11.3 km/h 98% 0.0 mm 11 W/m2
16:16 0.5 °C 0.2 °C 1025.4 hPa ESE 3.2 km/h 4.8 km/h 98% 0.0 mm 9 W/m2
16:21 0.5 °C 0.2 °C 1025.4 hPa ESE 4.7 km/h 9.7 km/h 98% 0.0 mm 9 W/m2
16:26 0.4 °C 0.1 °C 1025.4 hPa NNE 1.4 km/h 4.8 km/h 98% 0.0 mm 5 W/m2
16:31 0.5 °C 0.2 °C 1025.1 hPa East 3.2 km/h 4.8 km/h 98% 0.0 mm 5 W/m2
16:36 0.5 °C 0.2 °C 1025.1 hPa SE 3.2 km/h 4.8 km/h 98% 0.0 mm 5 W/m2
16:41 0.5 °C 0.2 °C 1025.4 hPa ESE 4.7 km/h 6.4 km/h 98% 0.0 mm 0 W/m2
16:46 0.5 °C 0.2 °C 1025.1 hPa East 4.7 km/h 9.7 km/h 98% 0.0 mm 0 W/m2
16:51 0.5 °C 0.2 °C 1025.4 hPa ESE 3.2 km/h 6.4 km/h 98% 0.0 mm 0 W/m2
16:56 0.5 °C 0.2 °C 1025.1 hPa ESE 1.4 km/h 4.8 km/h 98% 0.0 mm 0 W/m2
17:01 0.6 °C 0.3 °C 1025.1 hPa SE 3.2 km/h 4.8 km/h 98% 0.0 mm 0 W/m2
17:06 0.6 °C 0.3 °C 1025.1 hPa ESE 1.4 km/h 4.8 km/h 98% 0.0 mm 0 W/m2
17:11 0.6 °C 0.3 °C 1025.1 hPa ESE 3.2 km/h 11.3 km/h 98% 0.0 mm 0 W/m2
17:16 0.7 °C 0.4 °C 1025.1 hPa ESE 6.4 km/h 11.3 km/h 98% 0.0 mm 0 W/m2
17:21 0.7 °C 0.4 °C 1025.1 hPa ESE 6.4 km/h 6.4 km/h 98% 0.0 mm 0 W/m2
Juneau County Weather
Compliments of Weather Underground - 2 mb